Flight Track Log - Related Links

Times and Time Zones

All times are in EDT time to prevent confusion due to time zone crossing. See the SWA193 flight status page for this flight to view local times or setup timezone preferences in your user account.

Time Position Orientation Groundspeed Altitude Reporting Facility
EDT Latitude Longitude Course Direction KTS MPH feet Rate Location/Type
Sun 10:03:37 PM 37.7167 -122.2500 310° West 149 171 1,100  Level Northern Cal TRACON
Sun 10:04:37 PM 37.7500 -122.3000 310° West 212 244 3,100 2,400 Climbing Northern Cal TRACON
Sun 10:05:37 PM 37.8000 -122.3500 322° Northwest 223 257 5,900 2,650 Climbing Northern Cal TRACON
Sun 10:06:37 PM 37.7667 -122.4167 238° Southwest 250 288 8,400 2,250 Climbing Northern Cal TRACON
Sun 10:07:37 PM 37.7000 -122.4500 202° Southwest 284 327 10,400 2,100 Climbing Northern Cal TRACON
Sun 10:08:37 PM 37.6167 -122.4500 180° South 347 399 12,600 2,750 Climbing Northern Cal TRACON
Sun 10:09:37 PM 37.5333 -122.3500 136° Southeast 367 422 15,900 2,780 Climbing Northern Cal TRACON
Sun 10:12:02 PM 37.3817 -122.1014 127° Southeast 395 455 22,100 2,505 Climbing Oakland Center
Sun 10:13:03 PM 37.3097 -121.9894 129° Southeast 410 472 24,500 2,195 Climbing Oakland Center
Sun 10:14:05 PM 37.2358 -121.8742 129° Southeast 423 487 26,600 1,859 Climbing Oakland Center
Sun 10:16:07 PM 37.0806 -121.6347 129° Southeast 446 513 30,200 1,836 Climbing Oakland Center
Sun 10:17:08 PM 37.0008 -121.5114 129° Southeast 454 522 32,200 1,902 Climbing Oakland Center
Sun 10:18:10 PM 36.9219 -121.3919 130° Southeast 448 516 34,100 1,756 Climbing Oakland Center
Sun 10:19:11 PM 36.8450 -121.2742 129° Southeast 440 506 35,800 1,426 Climbing Oakland Center
Sun 10:20:12 PM 36.7583 -121.1436 130° Southeast 440 506 37,000 590 Climbing Oakland Center
Sun 10:21:13 PM 36.6828 -121.0272 129° Southeast 434 499 37,000  Level Oakland Center
Sun 10:22:15 PM 36.6050 -120.9122 130° Southeast 434 499 37,000  Level Oakland Center
Sun 10:23:16 PM 36.5292 -120.7964 129° Southeast 431 496 37,000  Level Oakland Center
Sun 10:24:17 PM 36.4528 -120.6800 129° Southeast 433 498 37,000  Level Oakland Center
Sun 10:25:18 PM 36.3756 -120.5658 130° Southeast 431 496 37,000  Level Oakland Center
Sun 10:26:20 PM 36.2967 -120.4511 130° Southeast 435 501 37,000  Level Oakland Center
Sun 10:27:21 PM 36.2031 -120.3119 130° Southeast 437 503 37,000  Level Oakland Center
Sun 10:28:22 PM 36.1261 -120.1978 130° Southeast 432 497 37,000  Level Oakland Center
Sun 10:29:24 PM 36.0489 -120.0869 131° Southeast 427 491 37,000  Level Oakland Center
Sun 10:30:25 PM 35.9708 -119.9711 130° Southeast 432 497 37,000  Level Oakland Center
Sun 10:31:26 PM 35.8942 -119.8567 130° Southeast 432 497 37,000  Level Oakland Center
Sun 10:32:28 PM 35.8175 -119.7458 130° Southeast 425 489 37,000  Level Oakland Center
Sun 10:33:29 PM 35.7397 -119.6325 130° Southeast 428 493 37,000  Level Oakland Center
Sun 10:34:30 PM 35.6608 -119.5194 131° Southeast 432 497 37,000  Level Oakland Center
Sun 10:35:32 PM 35.5833 -119.4075 130° Southeast 430 495 37,000 -98 Level Oakland Center
Sun 10:36:33 PM 35.5064 -119.2964 130° Southeast 428 493 36,800 -527 Descending Oakland Center
Sun 10:37:03 PM 35.4611 -119.2292 130° Southeast 428 493 36,200 -1,043 Descending Los Angeles Center
Sun 10:38:05 PM 35.3817 -119.1183 131° Southeast 431 496 35,200 -1,024 Descending Los Angeles Center
Sun 10:39:06 PM 35.3047 -119.0067 130° Southeast 429 494 34,100 -1,103 Descending Los Angeles Center
Sun 10:40:21 PM 35.2106 -118.8731 131° Southeast 432 497 32,700 -1,047 Descending Los Angeles Center
Sun 10:41:35 PM 35.1331 -118.7664 132° Southeast 423 487 31,500 -1,809 Descending Los Angeles Center
Sun 10:42:37 PM 35.0292 -118.6197 131° Southeast 409 471 28,600 -2,613 Descending Los Angeles Center
Sun 10:43:39 PM 34.9508 -118.5078 130° Southeast 430 495 26,100 -2,177 Descending Los Angeles Center
Sun 10:44:41 PM 34.8669 -118.3925 132° Southeast 434 499 24,100 -1,024 Descending Los Angeles Center
Sun 10:45:42 PM 34.7914 -118.2861 131° Southeast 423 487 24,000 -927 Descending Los Angeles Center
Sun 10:46:44 PM 34.7136 -118.1797 132° Southeast 423 487 22,200 -1,452 Descending Los Angeles Center
Sun 10:47:46 PM 34.6383 -118.0750 131° Southeast 417 480 21,000 -581 Descending Los Angeles Center
Sun 10:48:48 PM 34.5819 -117.9575 120° Southeast 408 470 21,000 -484 Level Los Angeles Center
Sun 10:49:50 PM 34.5269 -117.8378 119° Southeast 408 470 20,000 -1,548 Descending Los Angeles Center
Sun 10:50:52 PM 34.4631 -117.7000 119° Southeast 393 452 17,800 -2,468 Descending Los Angeles Center
Sun 10:51:54 PM 34.4094 -117.5825 119° Southeast 400 460 14,900 -2,293 Descending Los Angeles Center
Sun 10:52:55 PM 34.3633 -117.4803 119° Southeast 377 434 13,100 -976 Descending Los Angeles Center
Sun 10:53:57 PM 34.3200 -117.3839 119° Southeast 340 391 12,900 -1,452 Descending Los Angeles Center
Sun 10:54:59 PM 34.2492 -117.3433 155° Southeast 269 310 10,100 -2,912 Descending Los Angeles Center
Sun 10:56:13 PM 34.1550 -117.3422 179° South 277 319 6,300 -2,791 Descending Los Angeles Center
Sun 10:57:08 PM 34.0833 -117.3667 196° South 250 288 4,100 -1,774 Descending Southern California TRACON
Sun 10:58:08 PM 34.0667 -117.4333 253° West 224 258 2,900 -850 Descending Southern California TRACON
Sun 10:59:08 PM 34.0500 -117.5000 253° West 183 211 2,400 -714 Descending Southern California TRACON
Sun 11:00:14 PM 34.0500 -117.5500 270° West 141 162 1,400 -909 Descending Southern California TRACON
Sun 11:03:00 PM 34.0500 -117.6000 North  Level FlightAware Approximate

Login

Don't have an account? Register now (free) for customized features, flight alerts, and more!